sensor_id;sensor_type;location;lat;lon;timestamp;pressure;altitude;pressure_sealevel;temperature;humidity
61506;BME280;47366;51.916;4.574;2024-01-07T00:02:06;101960.16;;;3.01;93.23
61506;BME280;47366;51.916;4.574;2024-01-07T00:04:31;101976.22;;;2.99;93.29
61506;BME280;47366;51.916;4.574;2024-01-07T00:06:59;101978.94;;;2.94;93.81
61506;BME280;47366;51.916;4.574;2024-01-07T00:09:25;101982.59;;;2.87;94.06
61506;BME280;47366;51.916;4.574;2024-01-07T00:11:50;101974.59;;;2.84;93.74
61506;BME280;47366;51.916;4.574;2024-01-07T00:14:18;101978.16;;;2.85;94.09
61506;BME280;47366;51.916;4.574;2024-01-07T00:16:43;101987.06;;;2.85;94.34
61506;BME280;47366;51.916;4.574;2024-01-07T00:19:09;101975.56;;;2.77;93.47
61506;BME280;47366;51.916;4.574;2024-01-07T00:21:34;101986.19;;;2.86;93.93
61506;BME280;47366;51.916;4.574;2024-01-07T00:23:59;102002.06;;;3.00;93.58
61506;BME280;47366;51.916;4.574;2024-01-07T00:26:25;101982.47;;;2.96;93.19
61506;BME280;47366;51.916;4.574;2024-01-07T00:28:50;101989.69;;;2.91;93.48
61506;BME280;47366;51.916;4.574;2024-01-07T00:31:15;101997.72;;;2.91;93.59
61506;BME280;47366;51.916;4.574;2024-01-07T00:33:41;101985.41;;;2.75;93.39
61506;BME280;47366;51.916;4.574;2024-01-07T00:36:06;101993.38;;;2.80;94.16
61506;BME280;47366;51.916;4.574;2024-01-07T00:38:32;102005.69;;;2.94;93.54
61506;BME280;47366;51.916;4.574;2024-01-07T00:40:57;102008.31;;;2.99;93.83
61506;BME280;47366;51.916;4.574;2024-01-07T00:43:22;102006.56;;;2.95;92.84
61506;BME280;47366;51.916;4.574;2024-01-07T00:45:48;101997.75;;;2.87;93.49
61506;BME280;47366;51.916;4.574;2024-01-07T00:48:14;102010.19;;;2.92;93.58
61506;BME280;47366;51.916;4.574;2024-01-07T00:50:40;102015.63;;;2.83;92.80
61506;BME280;47366;51.916;4.574;2024-01-07T00:53:05;102007.59;;;2.86;93.19
61506;BME280;47366;51.916;4.574;2024-01-07T00:55:30;101998.75;;;2.78;93.39
61506;BME280;47366;51.916;4.574;2024-01-07T00:57:56;102008.56;;;2.78;93.01
61506;BME280;47366;51.916;4.574;2024-01-07T01:00:21;102005.06;;;2.71;93.46
61506;BME280;47366;51.916;4.574;2024-01-07T01:02:47;102009.53;;;2.72;93.48
61506;BME280;47366;51.916;4.574;2024-01-07T01:05:12;102014.97;;;2.60;93.93
61506;BME280;47366;51.916;4.574;2024-01-07T01:07:38;102021.28;;;2.55;93.72
61506;BME280;47366;51.916;4.574;2024-01-07T01:10:03;102010.63;;;2.49;93.93
61506;BME280;47366;51.916;4.574;2024-01-07T01:12:29;102016.84;;;2.51;94.03
61506;BME280;47366;51.916;4.574;2024-01-07T01:14:54;102015.09;;;2.50;94.35
61506;BME280;47366;51.916;4.574;2024-01-07T01:17:20;102015.97;;;2.48;94.21
61506;BME280;47366;51.916;4.574;2024-01-07T01:19:45;102025.78;;;2.50;93.72
61506;BME280;47366;51.916;4.574;2024-01-07T01:22:11;102013.38;;;2.43;94.66
61506;BME280;47366;51.916;4.574;2024-01-07T01:24:36;102018.63;;;2.49;94.31
61506;BME280;47366;51.916;4.574;2024-01-07T01:27:01;102028.44;;;2.50;94.49
61506;BME280;47366;51.916;4.574;2024-01-07T01:29:26;102015.16;;;2.40;94.54
61506;BME280;47366;51.916;4.574;2024-01-07T01:31:52;102027.59;;;2.45;94.58
61506;BME280;47366;51.916;4.574;2024-01-07T01:34:17;102031.19;;;2.41;94.82
61506;BME280;47366;51.916;4.574;2024-01-07T01:36:42;102033.88;;;2.41;94.90
61506;BME280;47366;51.916;4.574;2024-01-07T01:39:08;102046.38;;;2.39;95.32
61506;BME280;47366;51.916;4.574;2024-01-07T01:41:33;102045.50;;;2.37;95.22
61506;BME280;47366;51.916;4.574;2024-01-07T01:44:00;102041.09;;;2.30;94.88
61506;BME280;47366;51.916;4.574;2024-01-07T01:46:26;102051.75;;;2.33;94.64
61506;BME280;47366;51.916;4.574;2024-01-07T01:48:51;102041.06;;;2.33;94.91
61506;BME280;47366;51.916;4.574;2024-01-07T01:51:18;102050.00;;;2.30;94.84
61506;BME280;47366;51.916;4.574;2024-01-07T01:53:44;102048.31;;;2.19;94.83
61506;BME280;47366;51.916;4.574;2024-01-07T01:56:10;102054.50;;;2.24;95.64
61506;BME280;47366;51.916;4.574;2024-01-07T01:58:36;102073.19;;;2.27;95.55
61506;BME280;47366;51.916;4.574;2024-01-07T02:01:03;102066.88;;;2.39;95.03
61506;BME280;47366;51.916;4.574;2024-01-07T02:03:28;102069.53;;;2.42;94.75
61506;BME280;47366;51.916;4.574;2024-01-07T02:05:55;102069.47;;;2.46;94.63
61506;BME280;47366;51.916;4.574;2024-01-07T02:08:21;102081.06;;;2.47;94.66
61506;BME280;47366;51.916;4.574;2024-01-07T02:10:46;102069.47;;;2.45;94.35
61506;BME280;47366;51.916;4.574;2024-01-07T02:13:12;102063.28;;;2.38;94.17
61506;BME280;47366;51.916;4.574;2024-01-07T02:15:37;102084.66;;;2.44;94.58
61506;BME280;47366;51.916;4.574;2024-01-07T02:18:03;102081.09;;;2.41;94.41
61506;BME280;47366;51.916;4.574;2024-01-07T02:20:28;102074.00;;;2.41;94.68
61506;BME280;47366;51.916;4.574;2024-01-07T02:22:53;102074.94;;;2.31;94.30
61506;BME280;47366;51.916;4.574;2024-01-07T02:25:19;102078.44;;;2.38;94.41
61506;BME280;47366;51.916;4.574;2024-01-07T02:27:44;102086.53;;;2.31;94.73
61506;BME280;47366;51.916;4.574;2024-01-07T02:30:10;102089.16;;;2.39;94.62
61506;BME280;47366;51.916;4.574;2024-01-07T02:32:35;102069.59;;;2.32;94.24
61506;BME280;47366;51.916;4.574;2024-01-07T02:35:03;102089.19;;;2.33;94.03
61506;BME280;47366;51.916;4.574;2024-01-07T02:37:28;102082.97;;;2.26;93.76
61506;BME280;47366;51.916;4.574;2024-01-07T02:39:54;102083.91;;;2.27;93.79
61506;BME280;47366;51.916;4.574;2024-01-07T02:42:22;102090.16;;;2.24;93.71
61506;BME280;47366;51.916;4.574;2024-01-07T02:44:47;102097.25;;;2.24;93.10
61506;BME280;47366;51.916;4.574;2024-01-07T02:47:13;102091.91;;;2.27;93.54
61506;BME280;47366;51.916;4.574;2024-01-07T02:49:38;102107.03;;;2.28;93.01
61506;BME280;47366;51.916;4.574;2024-01-07T02:52:04;102102.59;;;2.24;93.08
61506;BME280;47366;51.916;4.574;2024-01-07T02:54:29;102109.75;;;2.25;93.54
61506;BME280;47366;51.916;4.574;2024-01-07T02:56:54;102102.59;;;2.25;93.40
61506;BME280;47366;51.916;4.574;2024-01-07T02:59:20;102110.69;;;2.18;93.06
61506;BME280;47366;51.916;4.574;2024-01-07T03:01:45;102109.81;;;2.17;93.49
61506;BME280;47366;51.916;4.574;2024-01-07T03:04:13;102091.13;;;2.11;93.26
61506;BME280;47366;51.916;4.574;2024-01-07T03:06:39;102104.47;;;2.17;93.45
61506;BME280;47366;51.916;4.574;2024-01-07T03:09:04;102099.16;;;2.08;93.58
61506;BME280;47366;51.916;4.574;2024-01-07T03:11:30;102102.69;;;2.13;93.68
61506;BME280;47366;51.916;4.574;2024-01-07T03:13:56;102115.16;;;2.17;93.37
61506;BME280;47366;51.916;4.574;2024-01-07T03:16:23;102115.16;;;2.14;93.60
61506;BME280;47366;51.916;4.574;2024-01-07T03:18:48;102121.38;;;2.16;93.44
61506;BME280;47366;51.916;4.574;2024-01-07T03:23:43;102124.06;;;2.16;93.76
61506;BME280;47366;51.916;4.574;2024-01-07T03:26:08;102134.72;;;2.22;93.63
61506;BME280;47366;51.916;4.574;2024-01-07T03:28:33;102137.38;;;2.19;93.99
61506;BME280;47366;51.916;4.574;2024-01-07T03:31:04;102137.41;;;2.18;93.77
61506;BME280;47366;51.916;4.574;2024-01-07T03:33:30;102129.38;;;2.21;93.78
61506;BME280;47366;51.916;4.574;2024-01-07T03:35:55;102126.66;;;2.24;94.13
61506;BME280;47366;51.916;4.574;2024-01-07T03:38:20;102139.09;;;2.34;94.22
61506;BME280;47366;51.916;4.574;2024-01-07T03:40:46;102148.00;;;2.33;93.67
61506;BME280;47366;51.916;4.574;2024-01-07T03:43:11;102146.25;;;2.26;94.10
61506;BME280;47366;51.916;4.574;2024-01-07T03:45:37;102152.47;;;2.34;93.52
61506;BME280;47366;51.916;4.574;2024-01-07T03:48:02;102148.88;;;2.33;93.12
61506;BME280;47366;51.916;4.574;2024-01-07T03:50:27;102150.66;;;2.33;93.35
61506;BME280;47366;51.916;4.574;2024-01-07T03:52:53;102158.63;;;2.44;93.43
61506;BME280;47366;51.916;4.574;2024-01-07T03:55:18;102165.75;;;2.46;93.06
61506;BME280;47366;51.916;4.574;2024-01-07T03:57:43;102165.72;;;2.48;93.29
61506;BME280;47366;51.916;4.574;2024-01-07T04:00:09;102172.81;;;2.57;92.87
61506;BME280;47366;51.916;4.574;2024-01-07T04:02:35;102161.28;;;2.45;93.10
61506;BME280;47366;51.916;4.574;2024-01-07T04:05:00;102174.75;;;2.28;94.00
61506;BME280;47366;51.916;4.574;2024-01-07T04:07:25;102178.41;;;2.20;94.42
61506;BME280;47366;51.916;4.574;2024-01-07T04:09:50;102184.66;;;2.11;94.61
61506;BME280;47366;51.916;4.574;2024-01-07T04:12:16;102181.97;;;2.09;95.01
61506;BME280;47366;51.916;4.574;2024-01-07T04:14:43;102194.47;;;2.10;94.86
61506;BME280;47366;51.916;4.574;2024-01-07T04:17:08;102187.34;;;2.08;94.94
61506;BME280;47366;51.916;4.574;2024-01-07T04:19:36;102177.53;;;2.11;94.96
61506;BME280;47366;51.916;4.574;2024-01-07T04:22:02;102198.03;;;2.06;94.99
61506;BME280;47366;51.916;4.574;2024-01-07T04:24:27;102190.88;;;2.11;95.43
61506;BME280;47366;51.916;4.574;2024-01-07T04:26:52;102186.44;;;2.09;95.22
61506;BME280;47366;51.916;4.574;2024-01-07T04:29:19;102198.94;;;2.10;95.67
61506;BME280;47366;51.916;4.574;2024-01-07T04:31:44;102189.16;;;2.07;95.78
61506;BME280;47366;51.916;4.574;2024-01-07T04:34:09;102195.34;;;2.09;95.58
61506;BME280;47366;51.916;4.574;2024-01-07T04:36:35;102200.69;;;2.11;95.12
61506;BME280;47366;51.916;4.574;2024-01-07T04:39:00;102195.38;;;2.02;95.72
61506;BME280;47366;51.916;4.574;2024-01-07T04:41:26;102194.50;;;2.07;95.63
61506;BME280;47366;51.916;4.574;2024-01-07T04:43:51;102210.50;;;2.15;95.73
61506;BME280;47366;51.916;4.574;2024-01-07T04:46:17;102200.69;;;2.09;95.30
61506;BME280;47366;51.916;4.574;2024-01-07T04:48:43;102203.44;;;2.00;94.83
61506;BME280;47366;51.916;4.574;2024-01-07T04:51:08;102203.44;;;1.97;95.45
61506;BME280;47366;51.916;4.574;2024-01-07T04:53:33;102214.13;;;1.99;95.49
61506;BME280;47366;51.916;4.574;2024-01-07T04:55:59;102205.22;;;1.98;95.18
61506;BME280;47366;51.916;4.574;2024-01-07T04:58:24;102224.75;;;2.05;95.51
61506;BME280;47366;51.916;4.574;2024-01-07T05:00:49;102225.69;;;2.01;95.38
61506;BME280;47366;51.916;4.574;2024-01-07T05:03:15;102224.84;;;1.91;95.09
61506;BME280;47366;51.916;4.574;2024-01-07T05:05:40;102225.69;;;1.98;95.25
61506;BME280;47366;51.916;4.574;2024-01-07T05:08:06;102214.16;;;1.85;95.46
61506;BME280;47366;51.916;4.574;2024-01-07T05:10:32;102233.72;;;1.90;95.24
61506;BME280;47366;51.916;4.574;2024-01-07T05:12:57;102235.50;;;1.97;95.09
61506;BME280;47366;51.916;4.574;2024-01-07T05:15:22;102237.28;;;1.95;94.95
61506;BME280;47366;51.916;4.574;2024-01-07T05:17:48;102245.31;;;1.98;94.79
61506;BME280;47366;51.916;4.574;2024-01-07T05:20:15;102244.41;;;1.96;94.83
61506;BME280;47366;51.916;4.574;2024-01-07T05:22:40;102251.53;;;1.92;95.26
61506;BME280;47366;51.916;4.574;2024-01-07T05:25:06;102250.66;;;1.90;95.29
61506;BME280;47366;51.916;4.574;2024-01-07T05:27:31;102248.88;;;1.96;94.94
61506;BME280;47366;51.916;4.574;2024-01-07T05:29:57;102257.81;;;1.78;95.05
61506;BME280;47366;51.916;4.574;2024-01-07T05:32:22;102260.47;;;1.81;95.39
61506;BME280;47366;51.916;4.574;2024-01-07T05:34:48;102261.41;;;1.72;96.15
61506;BME280;47366;51.916;4.574;2024-01-07T05:37:14;102261.41;;;1.63;97.12
61506;BME280;47366;51.916;4.574;2024-01-07T05:39:39;102268.50;;;1.72;97.24
61506;BME280;47366;51.916;4.574;2024-01-07T05:42:04;102271.16;;;1.87;96.97
61506;BME280;47366;51.916;4.574;2024-01-07T05:44:30;102273.81;;;1.87;96.13
61506;BME280;47366;51.916;4.574;2024-01-07T05:46:55;102281.81;;;1.91;96.15
61506;BME280;47366;51.916;4.574;2024-01-07T05:49:20;102280.94;;;1.88;96.08
61506;BME280;47366;51.916;4.574;2024-01-07T05:51:46;102283.63;;;1.91;95.86
61506;BME280;47366;51.916;4.574;2024-01-07T05:54:11;102280.06;;;1.87;96.02
61506;BME280;47366;51.916;4.574;2024-01-07T05:56:39;102283.66;;;1.66;96.94
61506;BME280;47366;51.916;4.574;2024-01-07T05:59:08;102288.09;;;1.66;97.28
61506;BME280;47366;51.916;4.574;2024-01-07T06:01:33;102289.91;;;1.61;97.41
61506;BME280;47366;51.916;4.574;2024-01-07T06:03:58;102289.00;;;1.54;97.42
61506;BME280;47366;51.916;4.574;2024-01-07T06:06:24;102299.69;;;1.59;97.58
61506;BME280;47366;51.916;4.574;2024-01-07T06:08:49;102305.03;;;1.54;98.08
61506;BME280;47366;51.916;4.574;2024-01-07T06:11:14;102308.59;;;1.56;98.39
61506;BME280;47366;51.916;4.574;2024-01-07T06:13:44;102317.50;;;1.57;98.23
61506;BME280;47366;51.916;4.574;2024-01-07T06:16:10;102314.84;;;1.51;97.90
61506;BME280;47366;51.916;4.574;2024-01-07T06:18:35;102317.47;;;1.64;98.10
61506;BME280;47366;51.916;4.574;2024-01-07T06:21:00;102326.41;;;1.65;97.72
61506;BME280;47366;51.916;4.574;2024-01-07T06:23:26;102329.94;;;1.64;97.68
61506;BME280;47366;51.916;4.574;2024-01-07T06:25:51;102329.94;;;1.65;97.67
61506;BME280;47366;51.916;4.574;2024-01-07T06:28:16;102337.97;;;1.64;97.54
61506;BME280;47366;51.916;4.574;2024-01-07T06:30:42;102343.28;;;1.72;96.75
61506;BME280;47366;51.916;4.574;2024-01-07T06:33:07;102335.28;;;1.65;96.69
61506;BME280;47366;51.916;4.574;2024-01-07T06:35:32;102342.44;;;1.69;96.94
61506;BME280;47366;51.916;4.574;2024-01-07T06:37:58;102348.66;;;1.79;96.54
61506;BME280;47366;51.916;4.574;2024-01-07T06:40:23;102353.06;;;1.89;96.06
61506;BME280;47366;51.916;4.574;2024-01-07T06:42:48;102351.31;;;1.84;95.88
61506;BME280;47366;51.916;4.574;2024-01-07T06:45:16;102361.09;;;1.71;95.81
61506;BME280;47366;51.916;4.574;2024-01-07T06:47:41;102367.34;;;1.68;96.17
61506;BME280;47366;51.916;4.574;2024-01-07T06:50:07;102368.25;;;1.72;96.87
61506;BME280;47366;51.916;4.574;2024-01-07T06:52:32;102363.78;;;1.66;96.70
61506;BME280;47366;51.916;4.574;2024-01-07T06:54:58;102362.00;;;1.79;96.32
61506;BME280;47366;51.916;4.574;2024-01-07T06:57:23;102370.91;;;1.89;96.39
61506;BME280;47366;51.916;4.574;2024-01-07T06:59:48;102375.34;;;1.85;95.82
61506;BME280;47366;51.916;4.574;2024-01-07T07:02:14;102381.59;;;1.89;95.98
61506;BME280;47366;51.916;4.574;2024-01-07T07:04:39;102368.19;;;1.86;95.38
61506;BME280;47366;51.916;4.574;2024-01-07T07:07:04;102386.91;;;1.98;95.42
61506;BME280;47366;51.916;4.574;2024-01-07T07:09:30;102394.03;;;2.01;95.51
61506;BME280;47366;51.916;4.574;2024-01-07T07:11:55;102397.59;;;2.00;95.39
61506;BME280;47366;51.916;4.574;2024-01-07T07:14:20;102390.50;;;1.91;95.75
61506;BME280;47366;51.916;4.574;2024-01-07T07:16:45;102401.19;;;1.91;95.30
61506;BME280;47366;51.916;4.574;2024-01-07T07:19:11;102397.59;;;1.78;95.83
61506;BME280;47366;51.916;4.574;2024-01-07T07:21:40;102406.53;;;1.82;96.51
61506;BME280;47366;51.916;4.574;2024-01-07T07:24:05;102400.28;;;1.81;95.65
61506;BME280;47366;51.916;4.574;2024-01-07T07:26:31;102407.41;;;1.79;95.71
61506;BME280;47366;51.916;4.574;2024-01-07T07:28:56;102416.31;;;1.83;95.43
61506;BME280;47366;51.916;4.574;2024-01-07T07:31:22;102421.66;;;1.78;95.15
61506;BME280;47366;51.916;4.574;2024-01-07T07:33:47;102437.69;;;1.80;95.03
61506;BME280;47366;51.916;4.574;2024-01-07T07:36:14;102436.78;;;1.78;95.41
61506;BME280;47366;51.916;4.574;2024-01-07T07:38:40;102431.44;;;1.85;95.46
61506;BME280;47366;51.916;4.574;2024-01-07T07:41:05;102450.16;;;1.85;95.11
61506;BME280;47366;51.916;4.574;2024-01-07T07:43:32;102445.69;;;1.83;94.97
61506;BME280;47366;51.916;4.574;2024-01-07T07:45:58;102444.81;;;1.75;94.89
61506;BME280;47366;51.916;4.574;2024-01-07T07:48:24;102467.97;;;1.74;94.05
61506;BME280;47366;51.916;4.574;2024-01-07T07:50:51;102467.03;;;1.74;94.45
61506;BME280;47366;51.916;4.574;2024-01-07T07:53:16;102471.53;;;1.75;94.72
61506;BME280;47366;51.916;4.574;2024-01-07T07:55:42;102475.06;;;1.69;94.39
61506;BME280;47366;51.916;4.574;2024-01-07T07:58:07;102474.19;;;1.78;94.12
61506;BME280;47366;51.916;4.574;2024-01-07T08:00:33;102475.97;;;1.69;94.19
61506;BME280;47366;51.916;4.574;2024-01-07T08:02:58;102472.38;;;1.61;94.86
61506;BME280;47366;51.916;4.574;2024-01-07T08:05:24;102481.28;;;1.60;95.40
61506;BME280;47366;51.916;4.574;2024-01-07T08:07:49;102479.50;;;1.59;95.77
61506;BME280;47366;51.916;4.574;2024-01-07T08:10:14;102479.53;;;1.62;95.57
61506;BME280;47366;51.916;4.574;2024-01-07T08:12:41;102491.06;;;1.64;95.58
61506;BME280;47366;51.916;4.574;2024-01-07T08:15:07;102474.16;;;1.56;95.84
61506;BME280;47366;51.916;4.574;2024-01-07T08:17:32;102485.72;;;1.58;95.22
61506;BME280;47366;51.916;4.574;2024-01-07T08:19:57;102496.41;;;1.61;95.34
61506;BME280;47366;51.916;4.574;2024-01-07T08:22:23;102512.44;;;1.66;95.13
61506;BME280;47366;51.916;4.574;2024-01-07T08:24:48;102498.16;;;1.50;95.52
61506;BME280;47366;51.916;4.574;2024-01-07T08:27:15;102503.50;;;1.50;95.73
61506;BME280;47366;51.916;4.574;2024-01-07T08:29:42;102508.84;;;1.50;95.65
61506;BME280;47366;51.916;4.574;2024-01-07T08:32:09;102512.41;;;1.52;95.27
61506;BME280;47366;51.916;4.574;2024-01-07T08:34:34;102514.19;;;1.55;95.45
61506;BME280;47366;51.916;4.574;2024-01-07T08:37:00;102516.00;;;1.56;95.82
61506;BME280;47366;51.916;4.574;2024-01-07T08:39:25;102525.78;;;1.54;95.46
61506;BME280;47366;51.916;4.574;2024-01-07T08:41:51;102521.31;;;1.49;95.66
61506;BME280;47366;51.916;4.574;2024-01-07T08:44:16;102527.56;;;1.56;95.69
61506;BME280;47366;51.916;4.574;2024-01-07T08:46:42;102517.78;;;1.55;95.27
61506;BME280;47366;51.916;4.574;2024-01-07T08:49:07;102529.38;;;1.60;95.42
61506;BME280;47366;51.916;4.574;2024-01-07T08:51:32;102528.44;;;1.57;95.49
61506;BME280;47366;51.916;4.574;2024-01-07T08:53:58;102537.38;;;1.60;95.09
61506;BME280;47366;51.916;4.574;2024-01-07T08:56:24;102528.44;;;1.54;95.12
61506;BME280;47366;51.916;4.574;2024-01-07T08:58:50;102540.03;;;1.56;95.10
61506;BME280;47366;51.916;4.574;2024-01-07T09:01:15;102535.53;;;1.50;95.07
61506;BME280;47366;51.916;4.574;2024-01-07T09:03:41;102547.13;;;1.49;95.54
61506;BME280;47366;51.916;4.574;2024-01-07T09:06:07;102541.75;;;1.44;95.18
61506;BME280;47366;51.916;4.574;2024-01-07T09:08:34;102564.94;;;1.52;95.25
61506;BME280;47366;51.916;4.574;2024-01-07T09:11:01;102561.38;;;1.51;95.10
61506;BME280;47366;51.916;4.574;2024-01-07T09:13:27;102572.06;;;1.54;95.17
61506;BME280;47366;51.916;4.574;2024-01-07T09:15:52;102563.13;;;1.44;94.71
61506;BME280;47366;51.916;4.574;2024-01-07T09:18:17;102559.56;;;1.42;94.77
61506;BME280;47366;51.916;4.574;2024-01-07T09:20:43;102569.47;;;1.69;94.35
61506;BME280;47366;51.916;4.574;2024-01-07T09:23:09;102578.34;;;1.70;93.41
61506;BME280;47366;51.916;4.574;2024-01-07T09:25:34;102568.53;;;1.61;93.65
61506;BME280;47366;51.916;4.574;2024-01-07T09:27:59;102591.69;;;1.65;93.88
61506;BME280;47366;51.916;4.574;2024-01-07T09:30:25;102581.00;;;1.65;93.28
61506;BME280;47366;51.916;4.574;2024-01-07T09:32:51;102589.00;;;1.64;93.29
61506;BME280;47366;51.916;4.574;2024-01-07T09:35:16;102589.00;;;1.64;93.11
61506;BME280;47366;51.916;4.574;2024-01-07T09:37:42;102587.22;;;1.66;93.20
61506;BME280;47366;51.916;4.574;2024-01-07T09:40:08;102599.69;;;1.61;92.65
61506;BME280;47366;51.916;4.574;2024-01-07T09:42:33;102599.66;;;1.59;92.62
61506;BME280;47366;51.916;4.574;2024-01-07T09:45:02;102605.88;;;1.52;93.09
61506;BME280;47366;51.916;4.574;2024-01-07T09:47:28;102613.03;;;1.58;92.96
61506;BME280;47366;51.916;4.574;2024-01-07T09:49:53;102606.78;;;1.53;92.53
61506;BME280;47366;51.916;4.574;2024-01-07T09:52:20;102614.81;;;1.60;93.05
61506;BME280;47366;51.916;4.574;2024-01-07T09:54:51;102621.06;;;1.61;92.61
61506;BME280;47366;51.916;4.574;2024-01-07T09:57:16;102626.34;;;1.52;91.69
61506;BME280;47366;51.916;4.574;2024-01-07T09:59:42;102629.03;;;1.59;92.30
61506;BME280;47366;51.916;4.574;2024-01-07T10:02:07;102623.66;;;1.50;91.93
61506;BME280;47366;51.916;4.574;2024-01-07T10:04:33;102642.41;;;1.58;91.63
61506;BME280;47366;51.916;4.574;2024-01-07T10:06:58;102639.69;;;1.50;90.58
61506;BME280;47366;51.916;4.574;2024-01-07T10:09:28;102633.44;;;1.49;91.11
61506;BME280;47366;51.916;4.574;2024-01-07T10:11:54;102635.22;;;1.44;91.93
61506;BME280;47366;51.916;4.574;2024-01-07T10:14:19;102642.31;;;1.41;91.45
61506;BME280;47366;51.916;4.574;2024-01-07T10:16:48;102642.38;;;1.52;90.84
61506;BME280;47366;51.916;4.574;2024-01-07T10:19:20;102642.38;;;1.48;91.58
61506;BME280;47366;51.916;4.574;2024-01-07T10:21:46;102645.88;;;1.44;91.59
61506;BME280;47366;51.916;4.574;2024-01-07T10:24:12;102649.50;;;1.53;91.60
61506;BME280;47366;51.916;4.574;2024-01-07T10:26:39;102655.72;;;1.55;90.98
61506;BME280;47366;51.916;4.574;2024-01-07T10:29:05;102653.09;;;1.59;91.38
61506;BME280;47366;51.916;4.574;2024-01-07T10:31:31;102654.84;;;1.56;91.27
61506;BME280;47366;51.916;4.574;2024-01-07T10:33:57;102652.16;;;1.51;90.93
61506;BME280;47366;51.916;4.574;2024-01-07T10:36:24;102661.94;;;1.52;91.03
61506;BME280;47366;51.916;4.574;2024-01-07T10:38:50;102658.41;;;1.59;91.28
61506;BME280;47366;51.916;4.574;2024-01-07T10:41:18;102652.16;;;1.57;91.32
61506;BME280;47366;51.916;4.574;2024-01-07T10:43:46;102657.53;;;1.59;90.49
61506;BME280;47366;51.916;4.574;2024-01-07T10:46:13;102661.16;;;1.67;90.95
61506;BME280;47366;51.916;4.574;2024-01-07T10:48:47;102666.44;;;1.61;90.56
61506;BME280;47366;51.916;4.574;2024-01-07T10:51:16;102662.84;;;1.54;90.52
61506;BME280;47366;51.916;4.574;2024-01-07T10:53:44;102676.19;;;1.49;88.74
61506;BME280;47366;51.916;4.574;2024-01-07T10:56:11;102669.94;;;1.46;90.49
61506;BME280;47366;51.916;4.574;2024-01-07T10:58:39;102667.28;;;1.46;89.91
61506;BME280;47366;51.916;4.574;2024-01-07T11:01:06;102672.63;;;1.52;88.93
61506;BME280;47366;51.916;4.574;2024-01-07T11:03:40;102677.09;;;1.53;90.20
61506;BME280;47366;51.916;4.574;2024-01-07T11:06:33;102670.84;;;1.51;89.53
61506;BME280;47366;51.916;4.574;2024-01-07T11:11:59;102666.41;;;1.55;88.65
61506;BME280;47366;51.916;4.574;2024-01-07T11:14:35;102663.75;;;1.59;88.66
61506;BME280;47366;51.916;4.574;2024-01-07T11:17:07;102664.72;;;1.70;87.97
61506;BME280;47366;51.916;4.574;2024-01-07T11:19:33;102654.00;;;1.64;87.29
61506;BME280;47366;51.916;4.574;2024-01-07T11:22:35;102661.16;;;1.72;87.14
61506;BME280;47366;51.916;4.574;2024-01-07T11:25:01;102667.34;;;1.64;87.52
61506;BME280;47366;51.916;4.574;2024-01-07T11:27:30;102680.75;;;1.70;86.93
61506;BME280;47366;51.916;4.574;2024-01-07T11:30:41;102670.06;;;1.74;87.21
61506;BME280;47366;51.916;4.574;2024-01-07T11:32:47;102660.25;;;1.71;86.69
61506;BME280;47366;51.916;4.574;2024-01-07T11:35:13;102673.69;;;1.82;85.20
61506;BME280;47366;51.916;4.574;2024-01-07T11:37:38;102666.53;;;1.78;85.13
61506;BME280;47366;51.916;4.574;2024-01-07T11:40:06;102666.53;;;1.79;85.51
61506;BME280;47366;51.916;4.574;2024-01-07T11:42:32;102658.50;;;1.81;85.06
61506;BME280;47366;51.916;4.574;2024-01-07T11:44:57;102679.91;;;1.85;84.55
61506;BME280;47366;51.916;4.574;2024-01-07T11:47:23;102671.00;;;1.82;85.45
61506;BME280;47366;51.916;4.574;2024-01-07T11:49:53;102677.25;;;1.84;85.31
61506;BME280;47366;51.916;4.574;2024-01-07T11:52:19;102676.34;;;1.82;84.54
61506;BME280;47366;51.916;4.574;2024-01-07T11:54:45;102681.69;;;1.82;85.76
61506;BME280;47366;51.916;4.574;2024-01-07T11:57:11;102680.78;;;1.77;84.08
61506;BME280;47366;51.916;4.574;2024-01-07T11:59:37;102696.81;;;1.80;84.33
61506;BME280;47366;51.916;4.574;2024-01-07T12:02:03;102683.44;;;1.78;85.11
61506;BME280;47366;51.916;4.574;2024-01-07T12:04:32;102684.38;;;1.88;84.13
61506;BME280;47366;51.916;4.574;2024-01-07T12:06:57;102691.59;;;2.10;83.97
61506;BME280;47366;51.916;4.574;2024-01-07T12:09:23;102688.97;;;2.27;84.28
61506;BME280;47366;51.916;4.574;2024-01-07T12:11:48;102683.63;;;2.30;84.39
61506;BME280;47366;51.916;4.574;2024-01-07T12:14:14;102689.91;;;2.39;82.72
61506;BME280;47366;51.916;4.574;2024-01-07T12:16:39;102685.47;;;2.56;82.29
61506;BME280;47366;51.916;4.574;2024-01-07T12:19:05;102685.47;;;2.71;81.97
61506;BME280;47366;51.916;4.574;2024-01-07T12:21:30;102692.63;;;2.85;81.19
61506;BME280;47366;51.916;4.574;2024-01-07T12:23:56;102686.38;;;2.87;81.28
61506;BME280;47366;51.916;4.574;2024-01-07T12:26:26;102698.84;;;2.88;78.52
61506;BME280;47366;51.916;4.574;2024-01-07T12:28:58;102701.53;;;2.88;78.74
61506;BME280;47366;51.916;4.574;2024-01-07T12:31:28;102699.75;;;2.84;79.40
61506;BME280;47366;51.916;4.574;2024-01-07T12:33:54;102699.75;;;2.73;80.40
61506;BME280;47366;51.916;4.574;2024-01-07T12:36:21;102690.81;;;2.59;78.78
61506;BME280;47366;51.916;4.574;2024-01-07T12:38:47;102698.84;;;2.48;80.15
61506;BME280;47366;51.916;4.574;2024-01-07T12:41:13;102689.00;;;2.37;79.40
61506;BME280;47366;51.916;4.574;2024-01-07T12:43:39;102694.38;;;2.49;78.49
61506;BME280;47366;51.916;4.574;2024-01-07T12:46:04;102698.88;;;2.62;79.32
61506;BME280;47366;51.916;4.574;2024-01-07T12:48:31;102709.56;;;2.76;79.52
61506;BME280;47366;51.916;4.574;2024-01-07T12:50:57;102706.88;;;2.71;78.02
61506;BME280;47366;51.916;4.574;2024-01-07T12:53:23;102700.66;;;2.65;77.29
61506;BME280;47366;51.916;4.574;2024-01-07T12:55:48;102704.22;;;2.70;78.14
61506;BME280;47366;51.916;4.574;2024-01-07T12:58:13;102718.50;;;2.84;79.40
61506;BME280;47366;51.916;4.574;2024-01-07T13:00:39;102711.34;;;2.89;78.79